sensor_id;sensor_type;location;lat;lon;timestamp;temperature;humidity
10384;DHT22;5238;43.508;4.980;2023-05-10T00:00:10;16.90;91.30
10384;DHT22;5238;43.508;4.980;2023-05-10T00:02:37;17.00;91.30
10384;DHT22;5238;43.508;4.980;2023-05-10T00:05:08;16.90;91.30
10384;DHT22;5238;43.508;4.980;2023-05-10T00:07:36;16.90;91.30
10384;DHT22;5238;43.508;4.980;2023-05-10T00:10:06;16.90;91.30
10384;DHT22;5238;43.508;4.980;2023-05-10T00:12:38;16.90;91.30
10384;DHT22;5238;43.508;4.980;2023-05-10T00:15:07;16.80;91.30
10384;DHT22;5238;43.508;4.980;2023-05-10T00:20:26;16.80;91.30
10384;DHT22;5238;43.508;4.980;2023-05-10T00:22:53;16.80;91.30
10384;DHT22;5238;43.508;4.980;2023-05-10T00:25:21;16.80;91.30
10384;DHT22;5238;43.508;4.980;2023-05-10T00:27:50;16.80;91.30
10384;DHT22;5238;43.508;4.980;2023-05-10T00:30:17;16.80;91.30
10384;DHT22;5238;43.508;4.980;2023-05-10T00:32:53;16.80;91.30
10384;DHT22;5238;43.508;4.980;2023-05-10T00:35:23;16.80;91.30
10384;DHT22;5238;43.508;4.980;2023-05-10T00:37:57;16.80;91.30
10384;DHT22;5238;43.508;4.980;2023-05-10T00:40:27;16.80;91.30
10384;DHT22;5238;43.508;4.980;2023-05-10T00:43:01;16.70;91.30
10384;DHT22;5238;43.508;4.980;2023-05-10T00:45:31;16.70;91.30
10384;DHT22;5238;43.508;4.980;2023-05-10T00:48:01;16.70;91.30
10384;DHT22;5238;43.508;4.980;2023-05-10T00:50:31;16.70;91.30
10384;DHT22;5238;43.508;4.980;2023-05-10T00:53:00;16.70;91.30
10384;DHT22;5238;43.508;4.980;2023-05-10T00:55:30;16.70;91.30
10384;DHT22;5238;43.508;4.980;2023-05-10T00:58:02;16.70;91.30
10384;DHT22;5238;43.508;4.980;2023-05-10T01:00:35;16.70;91.30
10384;DHT22;5238;43.508;4.980;2023-05-10T01:03:05;16.70;91.30
10384;DHT22;5238;43.508;4.980;2023-05-10T01:05:45;16.70;91.30
10384;DHT22;5238;43.508;4.980;2023-05-10T01:08:14;16.60;91.30
10384;DHT22;5238;43.508;4.980;2023-05-10T01:10:44;16.60;91.30
10384;DHT22;5238;43.508;4.980;2023-05-10T01:13:13;16.60;91.30
10384;DHT22;5238;43.508;4.980;2023-05-10T01:15:49;16.60;91.30
10384;DHT22;5238;43.508;4.980;2023-05-10T01:18:20;16.60;91.30
10384;DHT22;5238;43.508;4.980;2023-05-10T01:20:52;16.60;91.30
10384;DHT22;5238;43.508;4.980;2023-05-10T01:23:42;16.60;91.30
10384;DHT22;5238;43.508;4.980;2023-05-10T01:32:32;16.50;91.30
10384;DHT22;5238;43.508;4.980;2023-05-10T01:35:07;16.50;91.30
10384;DHT22;5238;43.508;4.980;2023-05-10T01:37:45;16.50;91.30
10384;DHT22;5238;43.508;4.980;2023-05-10T01:40:21;16.50;91.30
10384;DHT22;5238;43.508;4.980;2023-05-10T01:42:54;16.40;91.30
10384;DHT22;5238;43.508;4.980;2023-05-10T01:45:28;16.40;91.30
10384;DHT22;5238;43.508;4.980;2023-05-10T01:48:14;16.40;91.30
10384;DHT22;5238;43.508;4.980;2023-05-10T01:50:56;16.40;91.30
10384;DHT22;5238;43.508;4.980;2023-05-10T01:53:28;16.40;91.30
10384;DHT22;5238;43.508;4.980;2023-05-10T01:55:59;16.40;91.30
10384;DHT22;5238;43.508;4.980;2023-05-10T01:58:30;16.40;91.30
10384;DHT22;5238;43.508;4.980;2023-05-10T02:01:01;16.40;91.30
10384;DHT22;5238;43.508;4.980;2023-05-10T02:03:38;16.50;91.30
10384;DHT22;5238;43.508;4.980;2023-05-10T02:06:06;16.40;91.30
10384;DHT22;5238;43.508;4.980;2023-05-10T02:08:43;16.40;91.30
10384;DHT22;5238;43.508;4.980;2023-05-10T02:11:18;16.40;91.30
10384;DHT22;5238;43.508;4.980;2023-05-10T02:13:58;16.40;91.30
10384;DHT22;5238;43.508;4.980;2023-05-10T02:16:27;16.40;91.30
10384;DHT22;5238;43.508;4.980;2023-05-10T02:18:59;16.40;91.30
10384;DHT22;5238;43.508;4.980;2023-05-10T02:21:28;16.40;91.30
10384;DHT22;5238;43.508;4.980;2023-05-10T02:24:04;16.40;91.30
10384;DHT22;5238;43.508;4.980;2023-05-10T02:26:33;16.40;91.30
10384;DHT22;5238;43.508;4.980;2023-05-10T02:29:06;16.40;91.30
10384;DHT22;5238;43.508;4.980;2023-05-10T02:31:43;16.40;91.30
10384;DHT22;5238;43.508;4.980;2023-05-10T02:34:17;16.40;91.30
10384;DHT22;5238;43.508;4.980;2023-05-10T02:36:48;16.40;91.30
10384;DHT22;5238;43.508;4.980;2023-05-10T02:39:19;16.40;91.30
10384;DHT22;5238;43.508;4.980;2023-05-10T02:41:48;16.40;91.30
10384;DHT22;5238;43.508;4.980;2023-05-10T02:44:19;16.30;91.30
10384;DHT22;5238;43.508;4.980;2023-05-10T02:46:50;16.30;91.30
10384;DHT22;5238;43.508;4.980;2023-05-10T02:49:20;16.30;91.30
10384;DHT22;5238;43.508;4.980;2023-05-10T02:52:00;16.20;91.30
10384;DHT22;5238;43.508;4.980;2023-05-10T02:54:43;16.20;91.30
10384;DHT22;5238;43.508;4.980;2023-05-10T02:57:17;16.20;91.30
10384;DHT22;5238;43.508;4.980;2023-05-10T02:59:47;16.20;91.30
10384;DHT22;5238;43.508;4.980;2023-05-10T03:02:24;16.20;91.30
10384;DHT22;5238;43.508;4.980;2023-05-10T03:04:56;16.20;91.30
10384;DHT22;5238;43.508;4.980;2023-05-10T03:07:23;16.20;91.30
10384;DHT22;5238;43.508;4.980;2023-05-10T03:09:53;16.20;91.30
10384;DHT22;5238;43.508;4.980;2023-05-10T03:12:30;16.20;91.30
10384;DHT22;5238;43.508;4.980;2023-05-10T03:15:03;16.20;91.30
10384;DHT22;5238;43.508;4.980;2023-05-10T03:17:43;16.20;91.30
10384;DHT22;5238;43.508;4.980;2023-05-10T03:20:22;16.20;91.30
10384;DHT22;5238;43.508;4.980;2023-05-10T03:23:04;16.20;91.30
10384;DHT22;5238;43.508;4.980;2023-05-10T03:25:47;16.20;91.30
10384;DHT22;5238;43.508;4.980;2023-05-10T03:28:18;16.20;91.30
10384;DHT22;5238;43.508;4.980;2023-05-10T03:30:49;16.20;91.30
10384;DHT22;5238;43.508;4.980;2023-05-10T03:33:22;16.20;91.30
10384;DHT22;5238;43.508;4.980;2023-05-10T03:35:55;16.20;91.30
10384;DHT22;5238;43.508;4.980;2023-05-10T03:38:31;16.20;91.30
10384;DHT22;5238;43.508;4.980;2023-05-10T03:40:58;16.20;91.30
10384;DHT22;5238;43.508;4.980;2023-05-10T03:43:28;16.20;91.30
10384;DHT22;5238;43.508;4.980;2023-05-10T03:46:00;16.20;91.30
10384;DHT22;5238;43.508;4.980;2023-05-10T03:48:28;16.20;91.30
10384;DHT22;5238;43.508;4.980;2023-05-10T03:50:57;16.20;91.30
10384;DHT22;5238;43.508;4.980;2023-05-10T03:53:43;16.20;91.30
10384;DHT22;5238;43.508;4.980;2023-05-10T03:56:11;16.20;91.30
10384;DHT22;5238;43.508;4.980;2023-05-10T03:58:44;16.20;91.30
10384;DHT22;5238;43.508;4.980;2023-05-10T04:01:11;16.20;91.30
10384;DHT22;5238;43.508;4.980;2023-05-10T04:03:52;16.20;91.30
10384;DHT22;5238;43.508;4.980;2023-05-10T04:06:26;16.20;91.30
10384;DHT22;5238;43.508;4.980;2023-05-10T04:08:53;16.20;91.30
10384;DHT22;5238;43.508;4.980;2023-05-10T04:11:25;16.10;91.30
10384;DHT22;5238;43.508;4.980;2023-05-10T04:13:58;16.10;91.30
10384;DHT22;5238;43.508;4.980;2023-05-10T04:16:26;16.10;91.30
10384;DHT22;5238;43.508;4.980;2023-05-10T04:18:57;16.00;91.30
10384;DHT22;5238;43.508;4.980;2023-05-10T04:21:36;16.00;91.30
10384;DHT22;5238;43.508;4.980;2023-05-10T04:24:04;16.00;91.30
10384;DHT22;5238;43.508;4.980;2023-05-10T04:26:38;16.00;91.30
10384;DHT22;5238;43.508;4.980;2023-05-10T04:29:05;15.90;91.30
10384;DHT22;5238;43.508;4.980;2023-05-10T04:31:35;15.90;91.30
10384;DHT22;5238;43.508;4.980;2023-05-10T04:34:03;15.90;91.30
10384;DHT22;5238;43.508;4.980;2023-05-10T04:36:33;15.90;91.30
10384;DHT22;5238;43.508;4.980;2023-05-10T04:39:03;15.90;91.30
10384;DHT22;5238;43.508;4.980;2023-05-10T04:41:37;15.90;91.30
10384;DHT22;5238;43.508;4.980;2023-05-10T04:44:05;15.90;91.30
10384;DHT22;5238;43.508;4.980;2023-05-10T04:46:33;15.80;91.30
10384;DHT22;5238;43.508;4.980;2023-05-10T04:49:01;15.80;91.30
10384;DHT22;5238;43.508;4.980;2023-05-10T04:51:30;15.80;91.30
10384;DHT22;5238;43.508;4.980;2023-05-10T04:54:08;15.80;91.30
10384;DHT22;5238;43.508;4.980;2023-05-10T04:56:36;15.80;91.30
10384;DHT22;5238;43.508;4.980;2023-05-10T04:59:04;15.80;91.30
10384;DHT22;5238;43.508;4.980;2023-05-10T05:01:44;15.80;91.30
10384;DHT22;5238;43.508;4.980;2023-05-10T05:04:14;15.90;91.30
10384;DHT22;5238;43.508;4.980;2023-05-10T05:06:49;15.90;91.30
10384;DHT22;5238;43.508;4.980;2023-05-10T05:09:24;15.90;91.30
10384;DHT22;5238;43.508;4.980;2023-05-10T05:11:52;15.90;91.30
10384;DHT22;5238;43.508;4.980;2023-05-10T05:14:22;15.90;91.30
10384;DHT22;5238;43.508;4.980;2023-05-10T05:16:51;16.00;91.30
10384;DHT22;5238;43.508;4.980;2023-05-10T05:19:24;16.00;91.30
10384;DHT22;5238;43.508;4.980;2023-05-10T05:21:52;16.00;91.30
10384;DHT22;5238;43.508;4.980;2023-05-10T05:24:19;16.10;91.30
10384;DHT22;5238;43.508;4.980;2023-05-10T05:26:48;16.10;91.30
10384;DHT22;5238;43.508;4.980;2023-05-10T05:29:16;16.10;91.30
10384;DHT22;5238;43.508;4.980;2023-05-10T05:31:53;16.20;91.30
10384;DHT22;5238;43.508;4.980;2023-05-10T05:34:20;16.20;91.30
10384;DHT22;5238;43.508;4.980;2023-05-10T05:36:47;16.30;91.30
10384;DHT22;5238;43.508;4.980;2023-05-10T05:39:14;16.30;91.30
10384;DHT22;5238;43.508;4.980;2023-05-10T05:41:42;16.30;91.30
10384;DHT22;5238;43.508;4.980;2023-05-10T05:44:11;16.40;91.30
10384;DHT22;5238;43.508;4.980;2023-05-10T05:46:37;16.40;91.30
10384;DHT22;5238;43.508;4.980;2023-05-10T05:49:04;16.40;91.30
10384;DHT22;5238;43.508;4.980;2023-05-10T05:51:31;16.50;91.30
10384;DHT22;5238;43.508;4.980;2023-05-10T05:54:00;16.50;91.30
10384;DHT22;5238;43.508;4.980;2023-05-10T05:56:34;16.60;91.30
10384;DHT22;5238;43.508;4.980;2023-05-10T05:59:13;16.60;91.30
10384;DHT22;5238;43.508;4.980;2023-05-10T06:01:45;16.70;91.30
10384;DHT22;5238;43.508;4.980;2023-05-10T06:04:20;16.80;91.30
10384;DHT22;5238;43.508;4.980;2023-05-10T06:06:56;16.80;91.30
10384;DHT22;5238;43.508;4.980;2023-05-10T06:09:26;16.90;91.30
10384;DHT22;5238;43.508;4.980;2023-05-10T06:11:56;17.00;91.30
10384;DHT22;5238;43.508;4.980;2023-05-10T06:14:27;17.10;91.30
10384;DHT22;5238;43.508;4.980;2023-05-10T06:16:55;17.20;91.30
10384;DHT22;5238;43.508;4.980;2023-05-10T06:19:41;17.30;91.30
10384;DHT22;5238;43.508;4.980;2023-05-10T06:22:09;17.40;91.30
10384;DHT22;5238;43.508;4.980;2023-05-10T06:24:50;17.50;91.30
10384;DHT22;5238;43.508;4.980;2023-05-10T06:27:19;17.70;91.30
10384;DHT22;5238;43.508;4.980;2023-05-10T06:29:59;17.80;91.30
10384;DHT22;5238;43.508;4.980;2023-05-10T06:32:40;18.00;91.30
10384;DHT22;5238;43.508;4.980;2023-05-10T06:35:11;18.20;91.30
10384;DHT22;5238;43.508;4.980;2023-05-10T06:37:43;18.50;91.30
10384;DHT22;5238;43.508;4.980;2023-05-10T06:40:16;18.70;91.30
10384;DHT22;5238;43.508;4.980;2023-05-10T06:42:46;18.90;91.30
10384;DHT22;5238;43.508;4.980;2023-05-10T06:45:30;19.20;91.30
10384;DHT22;5238;43.508;4.980;2023-05-10T06:47:58;19.50;91.30
10384;DHT22;5238;43.508;4.980;2023-05-10T06:50:26;19.80;91.30
10384;DHT22;5238;43.508;4.980;2023-05-10T06:53:07;20.00;91.30
10384;DHT22;5238;43.508;4.980;2023-05-10T06:55:35;20.40;91.30
10384;DHT22;5238;43.508;4.980;2023-05-10T06:58:29;20.70;91.30
10384;DHT22;5238;43.508;4.980;2023-05-10T07:01:12;21.00;91.30
10384;DHT22;5238;43.508;4.980;2023-05-10T07:03:47;21.30;91.30
10384;DHT22;5238;43.508;4.980;2023-05-10T07:06:18;21.50;91.30
10384;DHT22;5238;43.508;4.980;2023-05-10T07:09:07;21.80;91.30
10384;DHT22;5238;43.508;4.980;2023-05-10T07:11:36;22.10;91.30
10384;DHT22;5238;43.508;4.980;2023-05-10T07:14:24;22.40;91.30
10384;DHT22;5238;43.508;4.980;2023-05-10T07:17:07;22.70;91.30
10384;DHT22;5238;43.508;4.980;2023-05-10T07:19:34;23.00;91.30
10384;DHT22;5238;43.508;4.980;2023-05-10T07:22:02;23.20;91.30
10384;DHT22;5238;43.508;4.980;2023-05-10T07:24:43;23.40;91.30
10384;DHT22;5238;43.508;4.980;2023-05-10T07:27:25;23.80;91.30
10384;DHT22;5238;43.508;4.980;2023-05-10T07:29:52;24.10;91.30
10384;DHT22;5238;43.508;4.980;2023-05-10T07:32:21;24.20;91.30
10384;DHT22;5238;43.508;4.980;2023-05-10T07:34:48;24.40;91.30
10384;DHT22;5238;43.508;4.980;2023-05-10T07:37:16;24.60;91.30
10384;DHT22;5238;43.508;4.980;2023-05-10T07:39:44;24.80;91.30
10384;DHT22;5238;43.508;4.980;2023-05-10T07:42:27;25.20;91.30
10384;DHT22;5238;43.508;4.980;2023-05-10T07:45:02;25.40;91.30
10384;DHT22;5238;43.508;4.980;2023-05-10T07:47:49;25.70;91.30
10384;DHT22;5238;43.508;4.980;2023-05-10T07:50:18;25.90;91.30
10384;DHT22;5238;43.508;4.980;2023-05-10T07:52:49;26.10;91.30
10384;DHT22;5238;43.508;4.980;2023-05-10T07:55:30;26.40;91.30
10384;DHT22;5238;43.508;4.980;2023-05-10T07:57:57;26.40;91.30
10384;DHT22;5238;43.508;4.980;2023-05-10T08:00:33;26.70;91.30
10384;DHT22;5238;43.508;4.980;2023-05-10T08:03:11;26.90;91.30
10384;DHT22;5238;43.508;4.980;2023-05-10T08:05:38;27.00;91.30
10384;DHT22;5238;43.508;4.980;2023-05-10T08:08:19;26.80;91.30
10384;DHT22;5238;43.508;4.980;2023-05-10T08:10:48;26.80;91.30
10384;DHT22;5238;43.508;4.980;2023-05-10T08:13:15;26.80;91.30
10384;DHT22;5238;43.508;4.980;2023-05-10T08:15:42;26.80;91.30
10384;DHT22;5238;43.508;4.980;2023-05-10T08:18:10;26.80;91.30
10384;DHT22;5238;43.508;4.980;2023-05-10T08:20:37;26.80;91.30
10384;DHT22;5238;43.508;4.980;2023-05-10T08:23:04;27.00;91.30
10384;DHT22;5238;43.508;4.980;2023-05-10T08:25:31;27.10;91.30
10384;DHT22;5238;43.508;4.980;2023-05-10T08:27:58;27.20;91.30
10384;DHT22;5238;43.508;4.980;2023-05-10T08:30:25;27.30;91.30
10384;DHT22;5238;43.508;4.980;2023-05-10T08:32:52;27.40;91.30
10384;DHT22;5238;43.508;4.980;2023-05-10T08:35:21;27.10;91.30
10384;DHT22;5238;43.508;4.980;2023-05-10T08:37:48;27.20;91.30
10384;DHT22;5238;43.508;4.980;2023-05-10T08:40:15;27.20;91.30
10384;DHT22;5238;43.508;4.980;2023-05-10T08:42:47;27.20;91.30
10384;DHT22;5238;43.508;4.980;2023-05-10T08:45:19;27.30;91.30
10384;DHT22;5238;43.508;4.980;2023-05-10T08:47:50;27.40;91.30
10384;DHT22;5238;43.508;4.980;2023-05-10T08:50:21;27.50;90.70
10384;DHT22;5238;43.508;4.980;2023-05-10T08:52:52;27.50;90.60
10384;DHT22;5238;43.508;4.980;2023-05-10T08:55:21;27.40;90.40
10384;DHT22;5238;43.508;4.980;2023-05-10T08:57:50;27.60;91.30
10384;DHT22;5238;43.508;4.980;2023-05-10T09:00:18;27.70;91.30
10384;DHT22;5238;43.508;4.980;2023-05-10T09:02:45;27.80;91.30
10384;DHT22;5238;43.508;4.980;2023-05-10T09:05:12;27.90;90.90
10384;DHT22;5238;43.508;4.980;2023-05-10T09:07:42;27.60;90.50
10384;DHT22;5238;43.508;4.980;2023-05-10T09:10:11;27.40;89.80
10384;DHT22;5238;43.508;4.980;2023-05-10T09:12:38;27.20;88.90
10384;DHT22;5238;43.508;4.980;2023-05-10T09:15:07;27.30;89.80
10384;DHT22;5238;43.508;4.980;2023-05-10T09:17:35;27.30;88.60
10384;DHT22;5238;43.508;4.980;2023-05-10T09:20:04;27.30;87.40
10384;DHT22;5238;43.508;4.980;2023-05-10T09:22:31;27.30;87.80
10384;DHT22;5238;43.508;4.980;2023-05-10T09:25:08;27.30;87.10
10384;DHT22;5238;43.508;4.980;2023-05-10T09:27:36;27.40;87.50
10384;DHT22;5238;43.508;4.980;2023-05-10T09:30:05;27.40;88.40
10384;DHT22;5238;43.508;4.980;2023-05-10T09:32:39;27.50;89.60
10384;DHT22;5238;43.508;4.980;2023-05-10T09:35:08;27.70;89.50
10384;DHT22;5238;43.508;4.980;2023-05-10T09:37:35;27.70;88.20
10384;DHT22;5238;43.508;4.980;2023-05-10T09:40:13;27.70;87.90
10384;DHT22;5238;43.508;4.980;2023-05-10T09:42:41;27.80;88.30
10384;DHT22;5238;43.508;4.980;2023-05-10T09:45:09;27.90;88.40
10384;DHT22;5238;43.508;4.980;2023-05-10T09:47:36;28.00;86.90
10384;DHT22;5238;43.508;4.980;2023-05-10T09:50:04;28.00;87.70
10384;DHT22;5238;43.508;4.980;2023-05-10T09:52:46;28.00;87.70
10384;DHT22;5238;43.508;4.980;2023-05-10T09:55:15;28.00;88.00
10384;DHT22;5238;43.508;4.980;2023-05-10T09:57:42;28.00;87.40
10384;DHT22;5238;43.508;4.980;2023-05-10T10:00:09;28.10;87.30
10384;DHT22;5238;43.508;4.980;2023-05-10T10:02:38;28.10;87.30
10384;DHT22;5238;43.508;4.980;2023-05-10T10:05:07;28.20;87.40
10384;DHT22;5238;43.508;4.980;2023-05-10T10:07:34;28.20;87.50
10384;DHT22;5238;43.508;4.980;2023-05-10T10:10:01;28.20;87.10
10384;DHT22;5238;43.508;4.980;2023-05-10T10:12:32;28.20;86.40
10384;DHT22;5238;43.508;4.980;2023-05-10T10:14:59;28.10;87.00
10384;DHT22;5238;43.508;4.980;2023-05-10T10:17:27;28.10;87.00
10384;DHT22;5238;43.508;4.980;2023-05-10T10:19:55;28.00;86.80
10384;DHT22;5238;43.508;4.980;2023-05-10T10:22:23;27.80;87.40
10384;DHT22;5238;43.508;4.980;2023-05-10T10:24:50;27.70;87.20
10384;DHT22;5238;43.508;4.980;2023-05-10T10:27:24;27.70;87.80
10384;DHT22;5238;43.508;4.980;2023-05-10T10:30:13;27.60;87.00
10384;DHT22;5238;43.508;4.980;2023-05-10T10:33:01;27.50;86.70
10384;DHT22;5238;43.508;4.980;2023-05-10T10:35:41;27.50;86.80
10384;DHT22;5238;43.508;4.980;2023-05-10T10:38:10;27.60;87.10
10384;DHT22;5238;43.508;4.980;2023-05-10T10:40:43;27.70;86.50
10384;DHT22;5238;43.508;4.980;2023-05-10T10:43:24;27.70;86.40
10384;DHT22;5238;43.508;4.980;2023-05-10T10:46:20;27.70;85.80
10384;DHT22;5238;43.508;4.980;2023-05-10T10:48:49;27.70;86.20
10384;DHT22;5238;43.508;4.980;2023-05-10T10:51:28;27.60;85.10
10384;DHT22;5238;43.508;4.980;2023-05-10T10:54:08;27.50;84.90
10384;DHT22;5238;43.508;4.980;2023-05-10T10:56:37;27.50;84.80
10384;DHT22;5238;43.508;4.980;2023-05-10T10:59:05;27.50;84.10
10384;DHT22;5238;43.508;4.980;2023-05-10T11:01:35;27.50;83.20
10384;DHT22;5238;43.508;4.980;2023-05-10T11:04:18;27.40;82.90
10384;DHT22;5238;43.508;4.980;2023-05-10T11:06:46;27.40;84.20
10384;DHT22;5238;43.508;4.980;2023-05-10T11:09:17;27.40;82.90
10384;DHT22;5238;43.508;4.980;2023-05-10T11:11:55;27.40;83.50
10384;DHT22;5238;43.508;4.980;2023-05-10T11:14:23;27.40;83.80
10384;DHT22;5238;43.508;4.980;2023-05-10T11:16:52;27.40;83.20
10384;DHT22;5238;43.508;4.980;2023-05-10T11:19:19;27.40;83.80
10384;DHT22;5238;43.508;4.980;2023-05-10T11:21:48;27.40;83.60
10384;DHT22;5238;43.508;4.980;2023-05-10T11:24:16;27.40;83.80
10384;DHT22;5238;43.508;4.980;2023-05-10T11:26:45;27.40;83.60
10384;DHT22;5238;43.508;4.980;2023-05-10T11:29:13;27.30;82.70
10384;DHT22;5238;43.508;4.980;2023-05-10T11:31:44;27.10;83.50
10384;DHT22;5238;43.508;4.980;2023-05-10T11:34:28;26.90;82.90
10384;DHT22;5238;43.508;4.980;2023-05-10T11:36:59;26.70;83.30
10384;DHT22;5238;43.508;4.980;2023-05-10T11:39:30;26.40;84.10
10384;DHT22;5238;43.508;4.980;2023-05-10T11:41:59;26.20;83.50
10384;DHT22;5238;43.508;4.980;2023-05-10T11:44:35;26.00;84.30
10384;DHT22;5238;43.508;4.980;2023-05-10T11:47:02;25.90;84.80
10384;DHT22;5238;43.508;4.980;2023-05-10T11:49:37;25.70;85.50
10384;DHT22;5238;43.508;4.980;2023-05-10T11:52:09;25.60;86.80
10384;DHT22;5238;43.508;4.980;2023-05-10T11:54:46;25.40;85.90
10384;DHT22;5238;43.508;4.980;2023-05-10T11:57:26;25.30;87.20
10384;DHT22;5238;43.508;4.980;2023-05-10T11:59:58;25.20;87.40
10384;DHT22;5238;43.508;4.980;2023-05-10T12:02:35;25.10;86.40
10384;DHT22;5238;43.508;4.980;2023-05-10T12:05:13;24.90;86.90
10384;DHT22;5238;43.508;4.980;2023-05-10T12:07:41;24.80;86.80
10384;DHT22;5238;43.508;4.980;2023-05-10T12:10:14;24.80;87.80
10384;DHT22;5238;43.508;4.980;2023-05-10T12:12:44;24.70;88.30
10384;DHT22;5238;43.508;4.980;2023-05-10T12:15:17;24.60;86.90
10384;DHT22;5238;43.508;4.980;2023-05-10T12:17:47;24.50;86.90
10384;DHT22;5238;43.508;4.980;2023-05-10T12:20:34;24.50;86.90
10384;DHT22;5238;43.508;4.980;2023-05-10T12:23:07;24.40;87.30
10384;DHT22;5238;43.508;4.980;2023-05-10T12:25:44;24.40;87.20
10384;DHT22;5238;43.508;4.980;2023-05-10T12:28:12;24.30;87.60
10384;DHT22;5238;43.508;4.980;2023-05-10T12:30:44;24.20;87.10
10384;DHT22;5238;43.508;4.980;2023-05-10T12:33:35;24.10;87.10
10384;DHT22;5238;43.508;4.980;2023-05-10T12:36:16;24.00;87.90
10384;DHT22;5238;43.508;4.980;2023-05-10T12:38:56;24.00;88.60
10384;DHT22;5238;43.508;4.980;2023-05-10T12:41:32;23.90;87.90
10384;DHT22;5238;43.508;4.980;2023-05-10T12:44:03;23.90;88.30
10384;DHT22;5238;43.508;4.980;2023-05-10T12:46:38;23.90;88.70
10384;DHT22;5238;43.508;4.980;2023-05-10T12:49:05;23.90;87.80
10384;DHT22;5238;43.508;4.980;2023-05-10T12:51:42;23.90;88.40
10384;DHT22;5238;43.508;4.980;2023-05-10T12:54:09;23.80;88.30
10384;DHT22;5238;43.508;4.980;2023-05-10T12:56:40;23.80;89.10
10384;DHT22;5238;43.508;4.980;2023-05-10T12:59:08;23.80;88.60
10384;DHT22;5238;43.508;4.980;2023-05-10T13:01:35;23.80;88.20
10384;DHT22;5238;43.508;4.980;2023-05-10T13:04:02;23.80;88.50
10384;DHT22;5238;43.508;4.980;2023-05-10T13:06:29;23.80;88.60
10384;DHT22;5238;43.508;4.980;2023-05-10T13:08:58;23.80;88.90
10384;DHT22;5238;43.508;4.980;2023-05-10T13:11:25;23.80;89.10
10384;DHT22;5238;43.508;4.980;2023-05-10T13:13:53;23.80;88.80
10384;DHT22;5238;43.508;4.980;2023-05-10T13:16:20;23.80;88.40
10384;DHT22;5238;43.508;4.980;2023-05-10T13:18:47;23.80;88.00
10384;DHT22;5238;43.508;4.980;2023-05-10T13:21:14;23.80;88.00
10384;DHT22;5238;43.508;4.980;2023-05-10T13:23:42;23.70;88.50
10384;DHT22;5238;43.508;4.980;2023-05-10T13:26:10;23.70;88.30
10384;DHT22;5238;43.508;4.980;2023-05-10T13:28:37;23.70;88.50
10384;DHT22;5238;43.508;4.980;2023-05-10T13:31:06;23.60;88.00
10384;DHT22;5238;43.508;4.980;2023-05-10T13:33:34;23.60;88.60
10384;DHT22;5238;43.508;4.980;2023-05-10T13:36:01;23.60;88.30
10384;DHT22;5238;43.508;4.980;2023-05-10T13:38:27;23.60;88.50
10384;DHT22;5238;43.508;4.980;2023-05-10T13:40:54;23.60;88.60
10384;DHT22;5238;43.508;4.980;2023-05-10T13:43:23;23.60;88.10
10384;DHT22;5238;43.508;4.980;2023-05-10T13:45:50;23.60;88.90
10384;DHT22;5238;43.508;4.980;2023-05-10T13:48:17;23.60;88.90
10384;DHT22;5238;43.508;4.980;2023-05-10T13:50:45;23.60;88.90
10384;DHT22;5238;43.508;4.980;2023-05-10T13:53:21;23.60;88.60
10384;DHT22;5238;43.508;4.980;2023-05-10T13:55:51;23.70;89.80
10384;DHT22;5238;43.508;4.980;2023-05-10T13:58:21;23.70;89.40
10384;DHT22;5238;43.508;4.980;2023-05-10T14:00:50;23.80;88.80
10384;DHT22;5238;43.508;4.980;2023-05-10T14:03:18;23.80;88.00
10384;DHT22;5238;43.508;4.980;2023-05-10T14:05:45;23.80;87.70
10384;DHT22;5238;43.508;4.980;2023-05-10T14:08:12;23.80;88.10
10384;DHT22;5238;43.508;4.980;2023-05-10T14:10:40;23.70;87.50
10384;DHT22;5238;43.508;4.980;2023-05-10T14:13:07;23.70;87.50
10384;DHT22;5238;43.508;4.980;2023-05-10T14:15:34;23.70;88.00
10384;DHT22;5238;43.508;4.980;2023-05-10T14:18:02;23.70;88.30
10384;DHT22;5238;43.508;4.980;2023-05-10T14:20:29;23.70;88.80
10384;DHT22;5238;43.508;4.980;2023-05-10T14:22:57;23.70;88.60
10384;DHT22;5238;43.508;4.980;2023-05-10T14:25:25;23.70;88.60
10384;DHT22;5238;43.508;4.980;2023-05-10T14:27:52;23.70;87.80
10384;DHT22;5238;43.508;4.980;2023-05-10T14:30:20;23.70;87.70
10384;DHT22;5238;43.508;4.980;2023-05-10T14:32:47;23.60;88.20
10384;DHT22;5238;43.508;4.980;2023-05-10T14:35:16;23.70;88.80
10384;DHT22;5238;43.508;4.980;2023-05-10T14:37:44;23.70;88.30
10384;DHT22;5238;43.508;4.980;2023-05-10T14:40:12;23.70;88.10
10384;DHT22;5238;43.508;4.980;2023-05-10T14:42:54;23.70;88.40
10384;DHT22;5238;43.508;4.980;2023-05-10T14:45:22;23.80;88.20
10384;DHT22;5238;43.508;4.980;2023-05-10T14:47:52;23.80;87.70
10384;DHT22;5238;43.508;4.980;2023-05-10T14:50:24;23.70;87.00
10384;DHT22;5238;43.508;4.980;2023-05-10T14:52:51;23.70;87.10
10384;DHT22;5238;43.508;4.980;2023-05-10T14:55:18;23.80;87.20
10384;DHT22;5238;43.508;4.980;2023-05-10T14:57:48;23.80;87.50
10384;DHT22;5238;43.508;4.980;2023-05-10T15:00:16;23.80;87.20
10384;DHT22;5238;43.508;4.980;2023-05-10T15:02:45;23.80;86.60
10384;DHT22;5238;43.508;4.980;2023-05-10T15:05:14;23.80;86.50
10384;DHT22;5238;43.508;4.980;2023-05-10T15:07:42;23.80;87.40
10384;DHT22;5238;43.508;4.980;2023-05-10T15:10:10;23.80;87.10
10384;DHT22;5238;43.508;4.980;2023-05-10T15:12:37;23.80;87.20
10384;DHT22;5238;43.508;4.980;2023-05-10T15:15:06;23.80;86.80
10384;DHT22;5238;43.508;4.980;2023-05-10T15:17:38;23.80;87.20
10384;DHT22;5238;43.508;4.980;2023-05-10T15:20:28;23.80;87.30
10384;DHT22;5238;43.508;4.980;2023-05-10T15:23:17;23.70;87.00
10384;DHT22;5238;43.508;4.980;2023-05-10T15:25:45;23.70;87.10
10384;DHT22;5238;43.508;4.980;2023-05-10T15:28:15;23.70;87.00
10384;DHT22;5238;43.508;4.980;2023-05-10T15:30:48;23.60;87.60
10384;DHT22;5238;43.508;4.980;2023-05-10T15:33:15;23.60;87.70
10384;DHT22;5238;43.508;4.980;2023-05-10T15:35:42;23.60;87.90
10384;DHT22;5238;43.508;4.980;2023-05-10T15:38:11;23.70;88.40
10384;DHT22;5238;43.508;4.980;2023-05-10T15:40:59;23.70;87.90
10384;DHT22;5238;43.508;4.980;2023-05-10T15:43:26;23.70;87.90
10384;DHT22;5238;43.508;4.980;2023-05-10T15:45:56;23.70;87.70
10384;DHT22;5238;43.508;4.980;2023-05-10T15:48:34;23.70;87.80
10384;DHT22;5238;43.508;4.980;2023-05-10T15:51:04;23.70;87.50
10384;DHT22;5238;43.508;4.980;2023-05-10T15:53:31;23.70;87.60
10384;DHT22;5238;43.508;4.980;2023-05-10T15:56:00;23.70;86.90
10384;DHT22;5238;43.508;4.980;2023-05-10T15:58:27;23.70;86.70
10384;DHT22;5238;43.508;4.980;2023-05-10T16:00:54;23.70;87.20
10384;DHT22;5238;43.508;4.980;2023-05-10T16:03:22;23.60;86.70
10384;DHT22;5238;43.508;4.980;2023-05-10T16:05:52;23.60;87.40
10384;DHT22;5238;43.508;4.980;2023-05-10T16:08:19;23.60;87.60
10384;DHT22;5238;43.508;4.980;2023-05-10T16:10:46;23.50;87.30
10384;DHT22;5238;43.508;4.980;2023-05-10T16:13:15;23.50;87.70
10384;DHT22;5238;43.508;4.980;2023-05-10T16:15:45;23.50;87.80
10384;DHT22;5238;43.508;4.980;2023-05-10T16:18:28;23.50;87.70
10384;DHT22;5238;43.508;4.980;2023-05-10T16:20:55;23.40;87.70